Racecast

Reagan Gebhart

Cheyenne Central (CO) · 12 · EASTWY D4A4A · Compare head to head

Athlete rating 121.4 2024 XC season
Best race 126.9 XC
Races 55
Seasons 4 2021 — 2024

RankedNation #10852·CO #426·Team #8 ?

Rating scale ?
Speed rating — all races

Cross Country

XC speed rating

2024 XC 116.5

Cheyenne Central (CO) · Grade 12

Date Meet Event Result Place Rating Difficulty PR/SR Flags
2024-10-26 Little America Golf Course 5000m 21:28.4 33rd · 7th on team 121.7 +0.065 ★CR CSR RSR
2024-10-18 Prairie View Golf Course 5000m 20:45.3 17th · 6th on team 121.6 +0.023 RSR
2024-10-11 Prairie View Golf Course 5000m 20:43.8 20th · 6th on team 121.2 +0.023 ★CR SR CSR RSR
2024-10-04 Northwest Open Space 5000m 22:01.3 116th · 7th on team 115.0 +0.020 ★CR CSR
2024-09-20 Stenger Complex 5000m 22:41.9 38th · 6th on team 113.0 +0.038 CSR
2024-09-14 Heritage High School 5000m 21:36.7 143rd · 6th on team 115.8 -0.001 SR CSR RSR
2024-09-06 Margaret W. Carpenter Recreation Center 5000m 22:32.8 66th · 6th on team 110.9 +0.014 ★CR SR CSR
2024-08-30 Jacoby Golf Course 5000m 23:07.2 82nd · 7th on team 113.2 +0.060 ★CR SR CSR RSR

2023 XC 123.3

Cheyenne Central (CO) · Grade 11

Date Meet Event Result Place Rating Difficulty PR/SR Flags
2023-11-11 Eagle Island State Park 5000m 20:18.5 159th · 5th on team 126.2 +0.029 ★PR ★CR SR CSR
2023-10-21 Cheyenne Country Club 5000m 20:29.5 16th · 5th on team 126.9 +0.052 ★CR ★R CSR RSR
2023-09-22 Clement Park 5000m 20:28.4 47th · 3rd on team 125.2 +0.030 PR ★CR R SR CSR RSR
2023-09-15 Stenger Complex 5000m 20:50.1 12th · 3rd on team 121.0 +0.038 ★CR CSR
2023-09-09 Heritage High School 5000m 20:44.1 123rd · 4th on team 121.2 -0.001 PR ★CR SR CSR
2023-09-03 Little America Golf Course 5000m 22:08.4 69th · 5th on team 119.3 +0.065 CR CSR
2023-08-25 Adams County Regional Park 5000m 21:04.2 11th · 4th on team 123.0 +0.048 PR ★CR R SR CSR RSR

2022 XC 115.1

Cheyenne Central (CO) · Grade 10

Date Meet Event Result Place Rating Difficulty PR/SR Flags
2022-10-22 Wyoming Indian High School 5000m 22:20.6 47th · 7th on team 116.8 +0.046 ★CR CSR
2022-10-14 North Cheyenne Community Park 5000m 23:09.4 2nd · 1st on team 116.9 +0.089 ★CR CSR
2022-10-07 Prairie View Golf Course 5000m 21:32.7 1st · 1st on team 117.3 +0.023 PR CR R SR CSR RSR
2022-09-10 Heritage High School 5000m 22:13.8 152nd · 6th on team 109.2 -0.001 PR CR SR CSR
2022-09-03 Little America Golf Course 5000m 22:54.6 75th · 5th on team 115.3 +0.065 CR SR CSR RSR

2021 XC 110.6

Cheyenne Central (CO) · Grade 9

Date Meet Event Result Place Rating Difficulty PR/SR Flags
2021-10-15 Campbell County High School 5000m 22:30 3rd · 2nd on team 115.9 +0.039 ★CR R CSR RSR
2021-10-08 Prairie View Golf Course 5000m 22:14 1st · 1st on team 115.7 +0.023 PR CR R SR CSR RSR
2021-09-11 Heritage High School 5000m 23:44 8th · 1st on team 108.1 -0.001 PR CR SR CSR
2021-09-03 Little America Golf Course 5000m 24:31.3 84th · 8th on team 108.3 +0.065 PR CR SR CSR RSR
2021-08-27 Adams County Regional Park 5000m 25:20.7 29th · 5th on team 104.9 +0.048 PR CR SR CSR RSR

Track & Field

TF speed rating

2024 TF 115.4

Cheyenne Central (CO) · Grade 11

Date Meet Event Result Place Rating Difficulty PR/SR Flags
2024-04-05 Okie Blanchard Invitational 1600m 5:54.87 8th · 4th on team 119.4 +0.006 RSR
2024-04-05 Okie Blanchard Invitational 400m 1:12.02 10th · 1st on team +0.006 SR
2024-03-30 Niwot Invitational 800m 2:48.92 61st · 2nd on team 110.8 -0.014
2024-03-30 Niwot Invitational 1600m 5:52.77 37th · 3rd on team 117.9 -0.014 RSR
2024-03-22 Race results → 1600m 5:52.64 20th · 1st on team 115.9 ★PR SR RSR
2024-03-22 Race results → 800m 2:42.91 41st · 3rd on team 112.8 ★PR SR

2023 TF 113.6

Cheyenne Central (CO) · Grade 10

Date Meet Event Result Place Rating Difficulty PR/SR Flags
2023-04-15 Mountain Range Mustang Invitational 1600m 6:19.92 10th · 3rd on team 110.2 -0.011
2023-04-06 Okie Blanchard Invite 800m 2:46.02 3rd · 1st on team 114.9 +0.006 PR SR
2023-04-06 Okie Blanchard Invite 1600m 6:13.08 2nd · 2nd on team 113.6 +0.006
2023-04-01 Altitude Running Invitational 1600m 6:00.03 30th · 3rd on team 116.3 -0.009 PR SR RSR
2023-03-24 Runners Roost of Fort Collins Invitational 800m 2:46.24 30th · 4th on team 113.2 -0.011 PR SR RSR
2023-03-24 Runners Roost of Fort Collins Invitational 1600m 6:09.38 29th · 3rd on team 113.2 -0.011 SR RSR

2022 TF 111.7

Cheyenne Central (CO) · Grade 9

Date Meet Event Result Place Rating Difficulty PR/SR Flags
2022-05-14 Wyoming 4A East Regionals 400m 1:12.19 28th · 5th on team +0.012
2022-04-30 Liberty Bell Track and Field Invitational 400m 1:11.13 53rd · 2nd on team -0.015
2022-04-22 Kendra Roeder Invite 1600m 6:41.47 3rd · 1st on team 107.3 +0.006
2022-04-22 Pine Bluffs Invite 1600m 6:41.47 3rd · 1st on team 107.3 +0.006
2022-04-22 Pine Bluffs Invite 400m 1:10.54 11th · 1st on team +0.006
2022-04-22 Kendra Roeder Invite 400m 1:10.54 11th · 1st on team +0.006
2022-04-22 Pine Bluffs Invite 800m 2:48.6 5th · 1st on team 114.7 +0.006 PR SR RSR
2022-04-22 Kendra Roeder Invite 800m 2:48.6 5th · 1st on team 114.7 +0.006
2022-04-16 Mountain Range Mustang Invitational 1600m 6:08.66 24th · 3rd on team 114.5 -0.006 PR SR RSR
2022-04-08 Okie Blanchard Invite hj 4-02.00 +0.006
2022-04-08 Okie Blanchard Invite 1600m 6:26.47 1st · 1st on team 111.1 +0.006
2022-04-08 Okie Blanchard Invite 400m 1:13.78 3rd · 1st on team +0.006
2022-04-02 Altitude Invitational hj NH -0.009
2022-04-02 Altitude Invitational 1600m 6:12.78 27th · 1st on team 112.7 -0.009 PR SR RSR
2022-03-19 Murray Kula Invitational 400m 1:09.34 19th · 1st on team -0.008 ★PR SR

2021 TF 112.2

McCormick (TX) · Grade 8

Date Meet Event Result Place Rating Difficulty PR/SR Flags
2021-05-06 Laramie Invite hj 4-00.00 +0.012
2021-05-06 Laramie Invite 800m 3:07.18 4th · 2nd on team 112.6 +0.012 PR R SR RSR
2021-05-06 Laramie Invite 1600m 6:56.57 3rd · 2nd on team 111.8 +0.012 PR SR